Time;durP1;ratioP1;P1;durP2;ratioP2;P2;SDS_P1;SDS_P2;PMS_P1;PMS_P2;Temp;Humidity;BMP_temperature;BMP_pressure;BME280_temperature;BME280_humidity;BME280_pressure;Samples;Min_cycle;Max_cycle;Signal;HPM_P1;HPM_P2
2023/06/05 00:02:17;;;;;;;11.80;9.27;;;;;;;15.82;100.00;64625.69;5051289;28;20190;-62
2023/06/05 00:04:43;;;;;;;9.82;8.65;;;;;;;15.82;100.00;64625.69;5033510;28;20237;-62
2023/06/05 00:07:08;;;;;;;14.00;8.55;;;;;;;15.76;100.00;64619.66;5051189;28;20221;-61
2023/06/05 00:09:34;;;;;;;11.15;9.30;;;;;;;15.79;100.00;64620.41;5051608;28;20243;-62
2023/06/05 00:11:59;;;;;;;10.73;9.15;;;;;;;15.78;100.00;64621.28;5051188;28;20768;-62
2023/06/05 00:14:25;;;;;;;11.65;9.00;;;;;;;15.77;100.00;64620.19;5051145;28;20775;-63
2023/06/05 00:16:51;;;;;;;12.43;9.85;;;;;;;15.79;100.00;64622.41;5033484;28;20196;-61
2023/06/05 00:19:17;;;;;;;12.35;10.35;;;;;;;15.83;100.00;64627.34;5051500;28;20222;-60
2023/06/05 00:21:42;;;;;;;14.35;9.63;;;;;;;15.87;100.00;64631.19;5051102;28;20189;-61
2023/06/05 00:24:07;;;;;;;15.90;9.93;;;;;;;15.89;100.00;64630.88;5051251;28;20247;-60
2023/06/05 00:26:33;;;;;;;13.68;10.32;;;;;;;15.86;100.00;64628.09;5050919;28;20196;-62
2023/06/05 00:28:58;;;;;;;14.13;10.68;;;;;;;15.69;100.00;64611.94;5050913;28;20221;-60
2023/06/05 00:31:24;;;;;;;14.02;10.70;;;;;;;15.73;100.00;64613.25;5050702;28;20235;-60
2023/06/05 00:33:51;;;;;;;12.10;9.52;;;;;;;15.96;100.00;64639.09;5050817;28;20229;-59
2023/06/05 00:36:18;;;;;;;14.20;10.02;;;;;;;15.71;100.00;64611.06;5050820;28;20193;-61
2023/06/05 00:38:45;;;;;;;10.27;9.27;;;;;;;15.69;100.00;64608.84;5050962;28;20209;-61
2023/06/05 00:41:10;;;;;;;10.77;9.27;;;;;;;15.77;100.00;64620.19;5050678;28;20360;-61
2023/06/05 00:43:37;;;;;;;11.15;9.68;;;;;;;15.73;100.00;64616.34;5050538;28;20639;-63
2023/06/05 00:46:03;;;;;;;9.57;8.57;;;;;;;15.72;100.00;64617.78;5050610;28;20197;-61
2023/06/05 00:48:31;;;;;;;12.57;9.38;;;;;;;15.83;100.00;64626.81;5050693;28;20251;-60
2023/06/05 00:50:57;;;;;;;12.25;8.73;;;;;;;15.82;100.00;64623.16;5050436;28;20220;-60
2023/06/05 00:53:24;;;;;;;9.35;8.38;;;;;;;15.86;100.00;64630.09;5050562;28;20205;-60
2023/06/05 00:55:50;;;;;;;8.80;7.72;;;;;;;15.80;100.00;64626.03;5050436;28;20189;-59
2023/06/05 00:58:16;;;;;;;12.23;8.02;;;;;;;15.85;100.00;64629.56;5050525;28;20205;-60
2023/06/05 01:00:42;;;;;;;11.43;8.77;;;;;;;15.86;100.00;64630.09;5050506;28;20193;-60
2023/06/05 01:03:08;;;;;;;10.90;8.65;;;;;;;15.81;100.00;64627.13;5050366;28;20728;-60
2023/06/05 01:05:36;;;;;;;10.40;9.32;;;;;;;15.72;100.00;64615.25;5050273;28;20181;-62
2023/06/05 01:08:03;;;;;;;12.80;9.77;;;;;;;15.74;100.00;64617.44;5050230;28;20200;-61
2023/06/05 01:10:28;;;;;;;13.05;10.07;;;;;;;15.57;100.00;64596.22;5050271;28;20203;-63
2023/06/05 01:12:59;;;;;;;14.02;10.38;;;;;;;15.60;100.00;64601.50;5050188;28;20213;-63
2023/06/05 01:15:31;;;;;;;15.20;9.75;;;;;;;15.62;100.00;64604.25;5050374;28;20181;-66
2023/06/05 01:17:58;;;;;;;15.23;9.82;;;;;;;15.68;100.00;64610.28;5050292;28;20564;-62
2023/06/05 01:20:38;;;;;;;12.38;9.43;;;;;;;15.63;100.00;64607.34;5050375;28;20192;-62
2023/06/05 01:23:10;;;;;;;9.73;8.60;;;;;;;15.65;100.00;64607.00;5050437;28;20239;-63
2023/06/05 01:25:36;;;;;;;10.23;9.18;;;;;;;15.80;100.00;64626.03;5032620;28;20338;-62
2023/06/05 01:28:16;;;;;;;12.30;9.82;;;;;;;15.64;100.00;64605.88;5058837;22;20652;-61
2023/06/05 01:31:14;;;;;;;14.25;9.43;;;;;;;15.63;100.00;64607.34;5069135;28;20196;-63
2023/06/05 01:34:01;;;;;;;11.65;9.15;;;;;;;15.55;100.00;64596.56;5043036;28;20434;-62
2023/06/05 01:36:29;;;;;;;10.63;8.50;;;;;;;15.72;100.00;64617.78;5050182;28;20267;-62
2023/06/05 01:38:56;;;;;;;10.80;8.73;;;;;;;15.82;100.00;64623.72;5050412;28;20209;-61
2023/06/05 01:41:22;;;;;;;11.70;8.30;;;;;;;15.83;100.00;64626.81;5050056;28;20189;-62
2023/06/05 01:43:48;;;;;;;13.85;9.48;;;;;;;15.85;100.00;64632.09;5050099;28;20283;-62
2023/06/05 01:46:16;;;;;;;13.05;9.48;;;;;;;15.75;100.00;64620.53;5032007;28;20664;-59
2023/06/05 01:48:43;;;;;;;11.05;9.38;;;;;;;15.70;100.00;64609.94;5050166;28;20675;-59
2023/06/05 01:51:08;;;;;;;14.65;10.48;;;;;;;15.48;100.00;64588.28;5048939;28;20722;-59
2023/06/05 01:53:34;;;;;;;11.55;10.32;;;;;;;15.32;100.00;64573.22;5048828;28;20209;-59
2023/06/05 01:55:59;;;;;;;12.95;10.85;;;;;;;15.26;100.00;64564.06;5048982;28;20193;-59
2023/06/05 01:58:26;;;;;;;11.77;10.48;;;;;;;15.32;100.00;64573.22;5051697;28;20217;-59
2023/06/05 02:00:56;;;;;;;14.30;10.65;;;;;;;15.35;100.00;64571.44;5052707;28;20217;-59
2023/06/05 02:03:22;;;;;;;15.98;10.57;;;;;;;15.37;100.00;64576.19;5053267;28;20683;-59
2023/06/05 02:05:48;;;;;;;11.95;10.35;;;;;;;15.46;100.00;64583.56;5053213;28;20190;-59
2023/06/05 02:08:19;;;;;;;17.05;10.73;;;;;;;15.42;100.00;64586.75;5053232;28;20238;-59
2023/06/05 02:10:46;;;;;;;11.85;9.80;;;;;;;15.53;100.00;64591.25;5053116;28;20193;-59
2023/06/05 02:13:12;;;;;;;11.85;9.55;;;;;;;15.50;100.00;64593.03;5053192;28;20212;-59
2023/06/05 02:15:37;;;;;;;12.77;9.45;;;;;;;15.46;100.00;64586.09;5052941;28;20630;-59
2023/06/05 02:18:04;;;;;;;10.80;8.95;;;;;;;15.48;100.00;64590.84;5053039;28;20190;-59
2023/06/05 02:20:30;;;;;;;12.48;10.00;;;;;;;15.36;100.00;64577.63;5053179;28;20189;-59
2023/06/05 02:22:56;;;;;;;10.68;9.30;;;;;;;15.54;100.00;64594.88;5052817;28;20237;-59
2023/06/05 02:25:26;;;;;;;13.00;9.80;;;;;;;15.59;100.00;64600.94;5052907;28;20182;-60
2023/06/05 02:27:52;;;;;;;10.65;8.98;;;;;;;15.51;100.00;64591.59;5052748;28;20189;-59
2023/06/05 02:30:17;;;;;;;10.30;8.60;;;;;;;15.56;100.00;64597.66;5052884;28;20566;-60
2023/06/05 02:32:45;;;;;;;12.82;9.52;;;;;;;15.13;100.00;64550.31;5052678;28;20213;-58
2023/06/05 02:35:12;;;;;;;9.88;8.75;;;;;;;15.15;100.00;64553.06;5052564;28;20700;-59
2023/06/05 02:37:43;;;;;;;9.60;8.60;;;;;;;15.39;100.00;64578.91;5052580;28;20190;-59
2023/06/05 02:40:09;;;;;;;12.40;9.55;;;;;;;15.30;100.00;64571.56;5052538;28;20239;-58
2023/06/05 02:42:35;;;;;;;10.20;8.15;;;;;;;15.08;100.00;64547.38;5052517;28;20217;-58
2023/06/05 02:45:01;;;;;;;10.43;8.23;;;;;;;15.27;100.00;64567.72;5052451;28;20241;-68
2023/06/05 02:47:26;;;;;;;11.68;8.38;;;;;;;15.28;100.00;64568.81;5052655;28;20217;-58
2023/06/05 02:49:52;;;;;;;13.70;8.55;;;;;;;15.27;100.00;64565.19;5052662;28;20213;-59
2023/06/05 02:52:18;;;;;;;10.95;9.00;;;;;;;15.32;100.00;64570.66;5052531;28;20780;-59
2023/06/05 02:54:43;;;;;;;10.63;8.77;;;;;;;15.34;100.00;64573.44;5052569;28;20267;-60
2023/06/05 02:57:08;;;;;;;12.20;8.85;;;;;;;15.36;100.00;64575.06;5052332;28;20188;-60
2023/06/05 02:59:39;;;;;;;9.40;8.38;;;;;;;15.36;100.00;64575.06;5052318;28;20286;-60
2023/06/05 03:02:08;;;;;;;10.43;8.48;;;;;;;15.40;100.00;64579.47;5052209;28;20181;-59
2023/06/05 03:04:33;;;;;;;11.82;8.80;;;;;;;15.62;100.00;64603.69;5052321;28;20248;-59
2023/06/05 03:07:03;;;;;;;14.02;9.43;;;;;;;15.73;100.00;64616.34;5052238;28;20219;-59
2023/06/05 03:09:30;;;;;;;11.85;9.05;;;;;;;15.49;100.00;64589.97;5033439;28;20296;-59
2023/06/05 03:11:56;;;;;;;17.52;10.75;;;;;;;15.30;100.00;64568.47;5051921;28;20270;-60
2023/06/05 03:14:21;;;;;;;13.48;10.27;;;;;;;15.27;100.00;64565.19;5052497;28;20316;-59
2023/06/05 03:16:47;;;;;;;12.40;10.18;;;;;;;15.19;100.00;64553.84;5052228;28;20303;-59
2023/06/05 03:19:12;;;;;;;14.32;11.10;;;;;;;14.92;100.00;64529.78;5052226;28;20213;-61
2023/06/05 03:21:39;;;;;;;13.57;9.50;;;;;;;14.82;100.00;64514.28;5052122;28;20349;-60
2023/06/05 03:24:07;;;;;;;12.50;9.27;;;;;;;14.81;100.00;64515.16;5052101;28;20220;-60
2023/06/05 03:26:32;;;;;;;15.63;11.20;;;;;;;14.89;100.00;64524.50;5051964;28;20194;-59
2023/06/05 03:28:58;;;;;;;15.60;10.00;;;;;;;14.87;100.00;64522.28;5051662;28;20229;-61
2023/06/05 03:31:24;;;;;;;15.23;9.30;;;;;;;14.69;100.00;64502.50;5051704;28;20211;-60
2023/06/05 03:33:51;;;;;;;13.88;10.20;;;;;;;14.45;100.00;64478.13;5051938;28;20251;-61
2023/06/05 03:36:17;;;;;;;15.48;9.27;;;;;;;14.43;100.00;64478.47;5051798;28;20660;-60
2023/06/05 03:38:43;;;;;;;13.50;9.45;;;;;;;14.35;100.00;64467.69;5052025;28;20210;-60
2023/06/05 03:41:09;;;;;;;17.27;9.57;;;;;;;14.38;100.00;64468.47;5051563;28;20189;-62
2023/06/05 03:43:34;;;;;;;15.48;10.50;;;;;;;14.48;100.00;64481.97;5051940;28;20224;-60
2023/06/05 03:46:00;;;;;;;13.07;10.48;;;;;;;14.41;100.00;64473.72;5051666;28;20178;-61
2023/06/05 03:48:26;;;;;;;14.88;11.00;;;;;;;14.47;100.00;64480.88;5051550;28;20213;-60
2023/06/05 03:50:53;;;;;;;22.05;11.43;;;;;;;14.59;100.00;64493.50;5051431;28;20192;-61
2023/06/05 03:53:18;;;;;;;17.80;11.43;;;;;;;14.55;100.00;64484.59;5051763;28;20220;-63
2023/06/05 03:55:45;;;;;;;14.85;9.98;;;;;;;14.60;100.00;64495.16;5051530;28;20189;-59
2023/06/05 03:58:13;;;;;;;11.30;10.05;;;;;;;14.60;100.00;64492.63;5051308;28;20217;-59
2023/06/05 04:00:43;;;;;;;11.75;9.90;;;;;;;14.79;100.00;64513.50;5051323;28;20682;-60
2023/06/05 04:03:12;;;;;;;14.98;11.63;;;;;;;14.68;100.00;64501.44;5051468;28;20217;-60
2023/06/05 04:05:39;;;;;;;13.02;10.50;;;;;;;14.79;100.00;64510.97;5051229;28;20648;-60
2023/06/05 04:08:05;;;;;;;17.42;12.27;;;;;;;14.85;100.00;64519.53;5051262;28;20198;-59
2023/06/05 04:10:31;;;;;;;14.23;11.43;;;;;;;14.98;100.00;64536.38;5051209;28;20181;-60
2023/06/05 04:12:57;;;;;;;18.30;11.60;;;;;;;15.08;100.00;64545.41;5051105;28;20224;-59
2023/06/05 04:15:26;;;;;;;13.30;11.05;;;;;;;15.01;100.00;64539.66;5033380;28;20189;-59
2023/06/05 04:17:52;;;;;;;16.60;12.00;;;;;;;15.22;100.00;64562.78;5050967;28;20284;-60
2023/06/05 04:20:18;;;;;;;17.17;13.07;;;;;;;14.99;100.00;64538.03;5050731;28;20622;-60
2023/06/05 04:22:45;;;;;;;13.88;10.93;;;;;;;15.22;100.00;64559.69;5051087;28;20735;-59
2023/06/05 04:25:12;;;;;;;13.82;10.77;;;;;;;15.37;100.00;64576.72;5050793;28;20699;-61
2023/06/05 04:27:42;;;;;;;12.60;9.65;;;;;;;15.83;100.00;64626.81;5050809;28;20185;-60
2023/06/05 04:30:09;;;;;;;12.52;10.60;;;;;;;16.45;100.00;64695.03;5050802;28;20209;-60
2023/06/05 04:32:39;;;;;;;13.45;9.95;;;;;;;16.86;100.00;64736.56;5050813;28;20201;-60
2023/06/05 04:35:06;;;;;;;12.48;10.20;;;;;;;17.02;100.00;64756.72;5075452;22;20232;-61
2023/06/05 04:37:32;;;;;;;14.30;9.30;;;;;;;17.47;100.00;64806.31;5070664;28;20185;-60
2023/06/05 04:39:58;;;;;;;15.18;9.45;;;;;;;17.86;100.00;64849.31;5052854;28;20202;-62
2023/06/05 04:42:27;;;;;;;15.40;10.13;;;;;;;17.95;100.00;64859.25;5032957;28;20198;-63
2023/06/05 04:45:03;;;;;;;12.75;10.63;;;;;;;18.06;100.00;64871.34;5051087;28;20212;-62
2023/06/05 04:47:29;;;;;;;11.90;9.30;;;;;;;17.81;100.00;64841.25;5049362;28;20220;-63
2023/06/05 04:49:58;;;;;;;14.05;10.27;;;;;;;17.58;100.00;64818.44;5050639;28;20216;-63
2023/06/05 04:52:24;;;;;;;15.82;11.38;;;;;;;17.06;100.00;64758.59;5050472;28;20267;-61
2023/06/05 04:54:49;;;;;;;12.63;10.70;;;;;;;17.29;100.00;64787.00;5043382;28;20226;-62
2023/06/05 04:57:16;;;;;;;16.48;10.35;;;;;;;17.49;100.00;64808.53;5030665;28;20225;-61
2023/06/05 04:59:42;;;;;;;14.60;10.23;;;;;;;17.44;100.00;64803.00;5030638;28;20225;-63
2023/06/05 05:02:08;;;;;;;12.60;10.98;;;;;;;17.12;100.00;64765.19;5029175;28;20229;-64
2023/06/05 05:04:34;;;;;;;14.55;11.15;;;;;;;17.11;100.00;64769.19;5030096;28;20257;-62
2023/06/05 05:07:01;;;;;;;15.40;12.57;;;;;;;17.14;100.00;64767.94;5030371;28;20228;-62
2023/06/05 05:09:27;;;;;;;16.48;11.50;;;;;;;17.34;100.00;64791.97;5062010;23;20298;-63
2023/06/05 05:11:53;;;;;;;17.73;12.02;;;;;;;17.12;100.00;64767.75;5070252;28;20216;-61
2023/06/05 05:14:18;;;;;;;13.80;10.63;;;;;;;17.18;100.00;64771.81;5057712;28;20206;-59
2023/06/05 05:16:43;;;;;;;14.35;11.80;;;;;;;17.01;100.00;64758.19;5050117;28;20638;-59
2023/06/05 05:19:09;;;;;;;17.52;12.02;;;;;;;17.11;100.00;64769.72;5049486;28;20279;-63
2023/06/05 05:21:36;;;;;;;17.10;12.45;;;;;;;17.11;100.00;64766.66;5050003;28;20206;-62
2023/06/05 05:24:01;;;;;;;15.50;12.68;;;;;;;17.22;100.00;64778.75;5050237;28;20209;-61
2023/06/05 05:26:27;;;;;;;19.08;12.18;;;;;;;17.02;100.00;64756.72;5032170;28;20223;-62
2023/06/05 05:28:52;;;;;;;13.10;11.32;;;;;;;17.00;100.00;64755.06;5049933;28;20691;-62
2023/06/05 05:31:18;;;;;;;16.50;11.70;;;;;;;16.88;100.00;64741.84;5049882;28;20710;-61
2023/06/05 05:33:44;;;;;;;23.15;13.25;;;;;;;17.16;100.00;64770.16;5053377;28;20201;-62
2023/06/05 05:36:10;;;;;;;19.23;12.73;;;;;;;17.10;100.00;64766.09;5053289;28;20744;-62
2023/06/05 05:38:35;;;;;;;24.40;14.73;;;;;;;17.44;100.00;64801.00;5053803;28;20240;-63
2023/06/05 05:41:01;;;;;;;23.90;14.88;;;;;;;17.92;100.00;64853.38;5053533;28;20577;-61
2023/06/05 05:43:26;;;;;;;22.98;14.20;;;;;;;18.78;100.00;64949.69;5053416;28;20205;-63
2023/06/05 05:45:51;;;;;;;15.15;12.43;;;;;;;18.90;100.00;64963.50;5053446;28;20209;-62
2023/06/05 05:48:17;;;;;;;19.75;12.90;;;;;;;18.86;100.00;64956.53;5053523;28;20699;-62
2023/06/05 05:50:43;;;;;;;18.85;12.07;;;;;;;19.18;100.00;64993.84;5051921;28;20198;-61
2023/06/05 05:53:08;;;;;;;15.55;11.80;;;;;;;19.18;100.00;64993.84;5053011;28;20694;-62
2023/06/05 05:55:34;;;;;;;20.80;12.95;;;;;;;19.06;100.00;64981.16;5035035;28;20251;-62
2023/06/05 05:57:59;;;;;;;14.70;11.95;;;;;;;19.32;100.00;65009.28;5034772;28;20662;-61
2023/06/05 06:00:25;;;;;;;16.77;12.68;;;;;;;19.07;100.00;64979.69;5053337;28;20219;-61
2023/06/05 06:02:52;;;;;;;19.10;13.27;;;;;;;19.20;100.00;64996.03;5052270;28;20214;-61
2023/06/05 06:05:18;;;;;;;14.68;11.95;;;;;;;19.22;100.00;64995.69;5034590;28;20213;-61
2023/06/05 06:07:43;;;;;;;14.52;11.45;;;;;;;19.24;100.00;64998.47;5050923;28;20273;-61
2023/06/05 06:10:12;;;;;;;18.52;12.15;;;;;;;19.23;100.00;64999.91;5051531;28;20760;-62
2023/06/05 06:12:37;;;;;;;19.65;12.43;;;;;;;19.05;100.00;64979.47;5051049;28;20659;-64
2023/06/05 06:15:04;;;;;;;14.57;12.15;;;;;;;19.07;100.00;64979.13;5052852;28;20213;-61
2023/06/05 06:17:29;;;;;;;12.05;10.80;;;;;;;19.20;100.00;64996.03;5051766;28;20216;-61
2023/06/05 06:19:55;;;;;;;17.67;12.07;;;;;;;19.27;100.00;65003.75;5052689;28;20229;-61
2023/06/05 06:22:21;;;;;;;18.73;11.48;;;;;;;19.42;100.00;65017.78;5052699;28;20196;-60
2023/06/05 06:24:46;;;;;;;18.33;11.35;;;;;;;19.55;100.00;65034.72;5052268;28;20217;-59
2023/06/05 06:27:12;;;;;;;17.13;11.93;;;;;;;19.76;100.00;65057.34;5052598;28;20182;-60
2023/06/05 06:29:49;;;;;;;14.93;11.38;;;;;;;19.98;100.00;65079.06;5052972;28;20210;-61
2023/06/05 06:32:17;;;;;;;13.13;11.45;;;;;;;19.89;100.00;65072.25;5052650;28;20331;-60
2023/06/05 06:34:44;;;;;;;16.52;12.40;;;;;;;20.07;100.00;65089.03;5052285;28;20218;-60
2023/06/05 06:37:14;;;;;;;16.42;12.63;;;;;;;19.87;100.00;65067.50;5052552;28;20258;-61
2023/06/05 06:39:41;;;;;;;15.35;11.50;;;;;;;19.90;100.00;65070.25;5052059;28;20305;-59
2023/06/05 06:42:06;;;;;;;15.02;11.50;;;;;;;19.85;100.00;65065.28;5052328;28;20763;-61
2023/06/05 06:44:32;;;;;;;17.42;12.73;;;;;;;20.03;100.00;65084.59;5051535;28;20221;-60
2023/06/05 06:46:58;;;;;;;14.10;10.70;;;;;;;20.29;100.00;65112.78;5052319;28;20213;-58
2023/06/05 06:49:24;;;;;;;17.08;12.32;;;;;;;20.13;100.00;65098.22;5052614;28;20271;-58
2023/06/05 06:51:57;;;;;;;16.58;12.18;;;;;;;20.16;100.00;65101.53;5051441;28;20232;-58
2023/06/05 06:54:25;;;;;;;15.90;12.73;;;;;;;20.18;100.00;65100.63;5052261;28;20221;-58
2023/06/05 06:56:50;;;;;;;13.63;12.00;;;;;;;20.21;100.00;65104.50;5052216;28;20213;-59
2023/06/05 06:59:16;;;;;;;26.20;13.68;;;;;;;20.22;100.00;65107.63;5052280;28;20206;-57
2023/06/05 07:01:46;;;;;;;17.23;12.45;;;;;;;20.18;100.00;65103.19;5051541;28;20586;-58
2023/06/05 07:04:20;;;;;;;18.02;14.57;;;;;;;20.22;100.00;65105.06;5052068;28;20240;-58
2023/06/05 07:06:48;;;;;;;18.10;13.48;;;;;;;20.21;100.00;65099.41;5050572;28;20212;-59
2023/06/05 07:09:14;;;;;;;17.13;13.30;;;;;;;20.18;100.00;65100.63;5051751;28;20212;-59
2023/06/05 07:11:40;;;;;;;17.58;12.68;;;;;;;20.32;100.00;65116.66;5050976;28;20229;-58
2023/06/05 07:14:07;;;;;;;17.13;13.38;;;;;;;20.44;100.00;65129.38;5052195;28;20209;-58
2023/06/05 07:16:33;;;;;;;20.88;13.60;;;;;;;20.40;100.00;65122.41;5050633;28;20635;-58
2023/06/05 07:18:59;;;;;;;15.60;11.68;;;;;;;20.41;100.00;65126.06;5051706;28;20240;-59
2023/06/05 07:21:25;;;;;;;14.82;11.68;;;;;;;20.70;100.00;65160.69;5050860;28;20185;-59
2023/06/05 07:23:53;;;;;;;14.93;12.02;;;;;;;20.75;100.00;65163.63;5051743;28;20226;-59
2023/06/05 07:26:20;;;;;;;16.77;13.30;;;;;;;20.70;100.00;65158.09;5051949;28;20225;-59
2023/06/05 07:28:49;;;;;;;17.70;13.40;;;;;;;20.71;100.00;65159.75;5050549;28;20220;-58
2023/06/05 07:31:14;;;;;;;17.48;13.88;;;;;;;20.65;100.00;65152.56;5051365;28;20224;-58
2023/06/05 07:33:41;;;;;;;17.92;13.00;;;;;;;20.82;100.00;65173.94;5051651;28;20213;-58
2023/06/05 07:36:07;;;;;;;18.42;13.38;;;;;;;20.88;99.95;65173.44;5051685;28;20215;-58
2023/06/05 07:38:33;;;;;;;15.98;12.43;;;;;;;20.76;99.32;65162.19;5051931;28;20271;-58
2023/06/05 07:41:06;;;;;;;16.98;13.45;;;;;;;20.64;100.00;65151.47;5051790;28;20185;-58
2023/06/05 07:43:31;;;;;;;20.23;13.50;;;;;;;20.81;100.00;65170.81;5051791;28;20709;-58
2023/06/05 07:45:57;;;;;;;22.02;13.50;;;;;;;21.09;100.00;65198.66;5051495;28;20640;-58
2023/06/05 07:48:23;;;;;;;17.60;13.32;;;;;;;21.11;100.00;65200.34;5051635;28;20225;-58
2023/06/05 07:50:49;;;;;;;16.52;11.75;;;;;;;21.05;100.00;65199.38;5051388;28;20190;-58
2023/06/05 07:53:14;;;;;;;17.92;12.85;;;;;;;21.07;100.00;65198.47;5050923;28;20213;-59
2023/06/05 07:55:40;;;;;;;19.00;11.60;;;;;;;21.05;100.00;65199.38;5049989;28;20194;-58
2023/06/05 07:58:06;;;;;;;20.20;13.40;;;;;;;21.12;100.00;65201.44;5051394;28;20224;-59
2023/06/05 08:00:33;;;;;;;23.70;14.05;;;;;;;21.23;97.91;65216.72;5051272;28;20189;-58
2023/06/05 08:02:59;;;;;;;16.45;12.35;;;;;;;21.08;99.81;65199.59;5051047;28;20224;-58
2023/06/05 08:05:25;;;;;;;19.55;13.23;;;;;;;21.17;100.00;65209.53;5051211;28;20204;-59
2023/06/05 08:07:51;;;;;;;18.98;12.90;;;;;;;21.32;100.00;65226.69;5050935;28;20194;-59
2023/06/05 08:10:16;;;;;;;13.55;10.57;;;;;;;21.79;100.00;65277.56;5051075;28;20274;-58
2023/06/05 08:12:42;;;;;;;13.50;10.32;;;;;;;22.02;97.06;65298.44;5050408;28;20304;-58
2023/06/05 08:15:08;;;;;;;18.00;11.88;;;;;;;22.03;92.85;65304.69;5050784;28;20594;-57
2023/06/05 08:17:34;;;;;;;18.48;11.77;;;;;;;22.05;94.16;65306.91;5050951;28;20178;-57
2023/06/05 08:20:00;;;;;;;12.73;9.77;;;;;;;22.00;97.49;65296.22;5050858;28;20271;-58
2023/06/05 08:22:25;;;;;;;15.68;11.05;;;;;;;21.93;93.09;65293.63;5050599;28;20270;-58
2023/06/05 08:24:53;;;;;;;18.83;12.00;;;;;;;22.01;92.37;65302.47;5050529;28;20252;-59
2023/06/05 08:27:19;;;;;;;14.77;12.23;;;;;;;21.93;94.19;65293.06;5049464;28;20270;-58
2023/06/05 08:29:44;;;;;;;13.05;9.98;;;;;;;21.97;97.49;65297.50;5051006;28;20229;-59
2023/06/05 08:32:10;;;;;;;16.30;11.65;;;;;;;22.14;93.10;65318.88;5050785;28;20213;-58
2023/06/05 08:34:36;;;;;;;13.50;10.70;;;;;;;22.09;94.45;65310.78;5050813;28;20676;-58
2023/06/05 08:37:02;;;;;;;14.68;11.57;;;;;;;22.08;94.15;65307.66;5050775;28;20206;-58
2023/06/05 08:39:31;;;;;;;15.82;10.23;;;;;;;22.27;95.47;65331.25;5050539;28;20695;-58
2023/06/05 08:42:00;;;;;;;16.13;11.20;;;;;;;22.55;96.10;65359.69;5050629;28;20201;-58
2023/06/05 08:44:30;;;;;;;11.68;9.05;;;;;;;22.89;97.97;65399.38;5050785;28;20229;-57
2023/06/05 08:47:01;;;;;;;16.60;9.68;;;;;;;23.28;96.00;65440.00;5050750;28;20202;-59
2023/06/05 08:49:36;;;;;;;15.98;9.73;;;;;;;23.37;94.19;65451.44;5049962;28;20814;-60
2023/06/05 08:52:06;;;;;;;12.20;9.73;;;;;;;23.55;93.90;65468.81;5050164;28;20262;-59
2023/06/05 08:54:39;;;;;;;12.07;9.07;;;;;;;23.66;93.40;65481.00;5050215;28;20201;-57
2023/06/05 08:57:08;;;;;;;13.80;9.13;;;;;;;23.54;91.56;65467.69;5050476;28;20281;-59
2023/06/05 08:59:33;;;;;;;16.30;9.75;;;;;;;23.41;92.41;65456.44;5050254;28;20239;-58
2023/06/05 09:01:59;;;;;;;12.82;10.25;;;;;;;23.28;89.11;65442.00;5050179;28;20292;-58
2023/06/05 09:04:29;;;;;;;11.38;9.30;;;;;;;23.06;82.32;65418.19;5050736;28;20209;-59
2023/06/05 09:06:57;;;;;;;10.02;8.68;;;;;;;22.58;94.71;65361.91;5049569;28;20205;-58
2023/06/05 09:09:22;;;;;;;15.43;9.85;;;;;;;22.49;84.72;65355.06;5049860;28;20684;-58
2023/06/05 09:12:01;;;;;;;14.00;9.48;;;;;;;22.25;94.18;65329.03;5050255;28;20293;-60
2023/06/05 09:14:26;;;;;;;12.70;8.40;;;;;;;22.45;95.12;65350.63;5049776;28;20224;-60
2023/06/05 09:16:52;;;;;;;10.75;8.23;;;;;;;22.71;92.54;65378.88;5032314;28;20197;-61
2023/06/05 09:19:19;;;;;;;13.07;8.70;;;;;;;22.71;90.51;65379.44;5050068;28;20217;-60
2023/06/05 09:21:52;;;;;;;10.63;8.85;;;;;;;22.48;89.94;65351.91;5050026;28;20200;-61
2023/06/05 09:24:23;;;;;;;14.85;9.75;;;;;;;22.25;89.37;65329.03;5049868;28;20284;-61
2023/06/05 09:26:59;;;;;;;14.23;9.13;;;;;;;22.31;85.68;65335.69;5050050;28;20231;-60
2023/06/05 09:29:36;;;;;;;11.13;8.20;;;;;;;21.97;85.02;65297.50;5050106;28;20255;-62
2023/06/05 09:32:06;;;;;;;10.80;7.95;;;;;;;21.76;84.99;65274.78;5050154;28;20216;-61
2023/06/05 09:34:40;;;;;;;14.05;9.02;;;;;;;21.52;86.64;65248.78;5049835;28;20288;-61
2023/06/05 09:37:10;;;;;;;9.98;8.32;;;;;;;21.44;89.92;65237.38;5049906;28;20212;-61
2023/06/05 09:39:37;;;;;;;11.95;8.20;;;;;;;21.41;86.74;65234.06;5049979;28;20259;-60
2023/06/05 09:42:03;;;;;;;15.05;9.15;;;;;;;21.35;91.52;65229.97;5050003;28;20205;-60
2023/06/05 09:44:30;;;;;;;11.18;9.18;;;;;;;21.11;93.16;65203.44;5049865;28;20290;-60
2023/06/05 09:47:05;;;;;;;11.93;10.18;;;;;;;20.89;99.51;65176.53;5049745;28;20707;-61
2023/06/05 09:49:39;;;;;;;10.30;8.80;;;;;;;20.83;96.72;65169.91;5032424;28;20228;-61
2023/06/05 09:52:07;;;;;;;14.18;9.80;;;;;;;20.59;98.32;65148.50;5049756;28;20201;-60
2023/06/05 09:54:32;;;;;;;12.75;9.88;;;;;;;20.37;100.00;65121.63;5049935;28;20229;-57
2023/06/05 09:57:00;;;;;;;13.07;8.98;;;;;;;20.32;100.00;65113.56;5049716;28;20205;-58
2023/06/05 09:59:31;;;;;;;12.45;9.55;;;;;;;20.33;100.00;65117.22;5049837;28;20297;-57
2023/06/05 10:01:59;;;;;;;12.88;10.40;;;;;;;20.23;99.63;65106.16;5049900;28;20206;-57
2023/06/05 10:04:27;;;;;;;11.90;9.48;;;;;;;20.05;100.00;65086.81;5049635;28;20217;-59
2023/06/05 10:06:57;;;;;;;14.40;9.95;;;;;;;20.00;100.00;65079.28;5049452;28;20201;-58
2023/06/05 10:09:24;;;;;;;12.43;9.45;;;;;;;20.07;100.00;65091.59;5049352;28;20222;-58
2023/06/05 10:11:50;;;;;;;12.02;9.45;;;;;;;20.05;100.00;65084.81;5049447;28;20213;-58
2023/06/05 10:14:16;;;;;;;12.95;9.77;;;;;;;20.16;100.00;65098.97;5048473;28;20217;-58
2023/06/05 10:16:44;;;;;;;11.43;8.75;;;;;;;20.32;100.00;65116.66;5049123;28;20193;-57
2023/06/05 10:19:11;;;;;;;12.35;9.30;;;;;;;20.28;100.00;65111.69;5034119;28;20650;-59
2023/06/05 10:21:36;;;;;;;13.18;10.00;;;;;;;20.23;99.94;65104.16;5052918;28;20604;-59
2023/06/05 10:24:17;;;;;;;13.73;9.52;;;;;;;20.34;99.81;65118.88;5052938;28;20217;-59
2023/06/05 10:26:51;;;;;;;11.75;9.45;;;;;;;20.45;100.00;65131.03;5052649;28;20288;-58
2023/06/05 10:29:35;;;;;;;13.65;9.45;;;;;;;20.64;97.16;65154.03;5052779;28;20213;-58
2023/06/05 10:32:06;;;;;;;11.38;9.35;;;;;;;20.56;96.66;65142.63;5052575;28;20216;-58
2023/06/05 10:34:53;;;;;;;15.18;8.95;;;;;;;20.51;95.56;65137.09;5053393;28;20229;-57
2023/06/05 10:37:46;;;;;;;11.85;8.27;;;;;;;20.54;94.38;65140.44;5052526;28;20205;-59
2023/06/05 10:40:12;;;;;;;15.63;9.98;;;;;;;20.63;95.64;65150.91;5052572;28;20266;-58
2023/06/05 10:42:37;;;;;;;12.32;8.45;;;;;;;20.69;96.09;65157.56;5051901;28;20277;-57
2023/06/05 10:45:03;;;;;;;11.45;7.75;;;;;;;20.66;92.36;65154.25;5051808;28;20209;-58
2023/06/05 10:47:32;;;;;;;11.75;8.35;;;;;;;20.66;89.16;65154.25;5052467;28;20193;-59
2023/06/05 10:50:19;;;;;;;11.63;9.00;;;;;;;20.64;97.84;65152.03;5052129;28;20367;-60
2023/06/05 10:52:45;;;;;;;10.75;8.55;;;;;;;20.92;95.83;65182.44;5052052;28;20719;-58
2023/06/05 10:55:12;;;;;;;11.73;8.82;;;;;;;20.87;99.19;65176.88;5052253;28;20229;-59
2023/06/05 10:58:00;;;;;;;11.18;8.77;;;;;;;20.97;94.20;65193.06;5052517;28;20224;-58
2023/06/05 11:00:27;;;;;;;10.90;8.60;;;;;;;20.98;96.75;65189.06;5052862;22;20213;-59
2023/06/05 11:02:53;;;;;;;11.85;9.05;;;;;;;21.04;100.00;65195.72;5070431;28;20216;-59
2023/06/05 11:05:20;;;;;;;14.80;9.57;;;;;;;21.17;97.74;65210.06;5052117;28;20189;-59
2023/06/05 11:07:45;;;;;;;11.48;9.70;;;;;;;21.08;100.00;65199.59;5052203;28;20690;-58
2023/06/05 11:10:17;;;;;;;11.50;9.00;;;;;;;20.91;100.00;65181.88;5052022;28;20205;-57
2023/06/05 11:12:42;;;;;;;9.45;8.30;;;;;;;20.88;97.49;65178.00;5051916;28;20217;-58
2023/06/05 11:15:09;;;;;;;12.00;8.70;;;;;;;20.99;98.83;65189.63;5051920;28;20236;-58
2023/06/05 11:17:39;;;;;;;11.52;8.68;;;;;;;21.22;97.06;65215.06;5051789;28;20201;-58